Time;durP1;ratioP1;P1;durP2;ratioP2;P2;SDS_P1;SDS_P2;PMS_P1;PMS_P2;Temp;Humidity;BMP_temperature;BMP_pressure;BME280_temperature;BME280_humidity;BME280_pressure;Samples;Min_cycle;Max_cycle;Signal;HPM_P1;HPM_P2
2024/01/07 00:00:48;;;;;;;;;;;;;;;7.34;75.01;99325.09;1088453;47;1010;-79
2024/01/07 00:01:52;;;;;;;;;;;;;;;7.35;75.13;99326.78;1088118;47;1308;-77
2024/01/07 00:02:53;;;;;;;;;;;;;;;7.36;74.86;99332.94;1088368;47;913;-83
2024/01/07 00:03:56;;;;;;;;;;;;;;;7.39;74.89;99332.66;1088308;47;909;-80
2024/01/07 00:04:57;;;;;;;;;;;;;;;7.36;74.96;99323.16;1088101;47;1846;-78
2024/01/07 00:06:01;;;;;;;;;;;;;;;7.36;74.87;99331.13;1088127;47;964;-79
2024/01/07 00:07:04;;;;;;;;;;;;;;;7.38;74.87;99323.00;1088346;47;956;-80
2024/01/07 00:08:10;;;;;;;;;;;;;;;7.38;74.56;99328.31;1088729;54;992;-82
2024/01/07 00:09:12;;;;;;;;;;;;;;;7.32;74.71;99337.72;1088249;54;942;-76
2024/01/07 00:10:13;;;;;;;;;;;;;;;7.36;74.85;99328.47;1088176;54;1031;-80
2024/01/07 00:11:16;;;;;;;;;;;;;;;7.31;74.96;99338.69;1088230;47;1013;-81
2024/01/07 00:12:17;;;;;;;;;;;;;;;7.34;75.01;99330.41;1088545;54;1394;-81
2024/01/07 00:13:20;;;;;;;;;;;;;;;7.39;74.57;99327.34;1088622;54;946;-79
2024/01/07 00:14:21;;;;;;;;;;;;;;;7.38;74.70;99337.16;1088568;54;994;-80
2024/01/07 00:15:33;;;;;;;;;;;;;;;7.35;74.69;99329.44;1088768;46;927;-81
2024/01/07 00:16:34;;;;;;;;;;;;;;;7.36;74.61;99322.31;1088455;47;875;-79
2024/01/07 00:17:37;;;;;;;;;;;;;;;7.33;74.99;99337.56;1088413;46;1008;-81
2024/01/07 00:18:39;;;;;;;;;;;;;;;7.36;75.00;99338.28;1088572;54;915;-83
2024/01/07 00:19:42;;;;;;;;;;;;;;;7.29;74.95;99335.34;1088443;54;1109;-79
2024/01/07 00:20:45;;;;;;;;;;;;;;;7.22;75.18;99335.06;1088370;54;900;-78
2024/01/07 00:21:49;;;;;;;;;;;;;;;7.29;75.18;99330.00;1088098;47;1350;-76
2024/01/07 00:22:50;;;;;;;;;;;;;;;7.28;74.98;99329.16;1088194;47;975;-79
2024/01/07 00:23:55;;;;;;;;;;;;;;;7.33;74.92;99336.72;1088215;47;973;-80
2024/01/07 00:24:56;;;;;;;;;;;;;;;7.35;74.89;99334.75;1088202;47;1861;-82
2024/01/07 00:25:59;;;;;;;;;;;;;;;7.32;75.02;99329.75;1088134;47;925;-77
2024/01/07 00:27:00;;;;;;;;;;;;;;;7.38;74.95;99338.94;1088198;54;971;-79
2024/01/07 00:28:27;;;;;;;;;;;;;;;7.39;74.82;99330.00;1088507;54;980;-81
2024/01/07 00:29:27;;;;;;;;;;;;;;;7.40;74.77;99329.00;1088305;54;918;-79
2024/01/07 00:30:33;;;;;;;;;;;;;;;7.37;74.93;99331.97;1088335;46;928;-78
2024/01/07 00:31:34;;;;;;;;;;;;;;;7.26;75.20;99331.16;1088135;46;1428;-79
2024/01/07 00:33:59;;;;;;;;;;;;;;;7.26;74.84;99332.94;1088475;54;1080;-81
2024/01/07 00:35:00;;;;;;;;;;;;;;;7.25;75.14;99340.09;1088283;54;914;-78
2024/01/07 00:36:05;;;;;;;;;;;;;;;7.13;75.57;99343.88;1088329;47;974;-80
2024/01/07 00:37:06;;;;;;;;;;;;;;;7.17;75.77;99337.31;1088347;47;990;-80
2024/01/07 00:38:10;;;;;;;;;;;;;;;7.25;75.43;99332.13;1088347;54;978;-79
2024/01/07 00:39:10;;;;;;;;;;;;;;;7.29;75.39;99332.69;1088594;47;986;-82
2024/01/07 00:40:14;;;;;;;;;;;;;;;7.31;75.24;99331.53;1088386;54;988;-80
2024/01/07 00:41:15;;;;;;;;;;;;;;;7.30;75.23;99332.53;1088453;54;1063;-81
2024/01/07 00:42:18;;;;;;;;;;;;;;;7.31;74.96;99334.19;1088316;47;1284;-82
2024/01/07 00:43:19;;;;;;;;;;;;;;;7.33;75.03;99337.56;1088264;47;1030;-80
2024/01/07 00:44:22;;;;;;;;;;;;;;;7.33;74.98;99326.94;1088389;46;1859;-79
2024/01/07 00:45:23;;;;;;;;;;;;;;;7.39;75.07;99330.84;1088520;47;1016;-81
2024/01/07 00:46:34;;;;;;;;;;;;;;;7.39;74.88;99324.66;1088530;54;1098;-80
2024/01/07 00:47:35;;;;;;;;;;;;;;;7.39;75.02;99330.84;1088235;54;1147;-78
2024/01/07 00:48:36;;;;;;;;;;;;;;;7.37;74.62;99329.31;1088416;54;926;-82
2024/01/07 00:49:40;;;;;;;;;;;;;;;7.41;74.56;99328.03;1088353;54;970;-80
2024/01/07 00:50:42;;;;;;;;;;;;;;;7.45;74.49;99326.78;1088421;54;964;-81
2024/01/07 00:51:45;;;;;;;;;;;;;;;7.47;74.56;99322.13;1088124;54;1307;-78
2024/01/07 00:52:46;;;;;;;;;;;;;;;7.49;74.37;99329.03;1088285;54;999;-79
2024/01/07 00:53:49;;;;;;;;;;;;;;;7.47;74.49;99338.09;1088553;54;1006;-82
2024/01/07 00:54:52;;;;;;;;;;;;;;;7.46;74.42;99331.94;1088185;54;1178;-77
2024/01/07 00:55:55;;;;;;;;;;;;;;;7.51;74.08;99328.88;1088351;54;1042;-80
2024/01/07 00:56:56;;;;;;;;;;;;;;;7.48;73.99;99330.00;1088334;54;970;-81
2024/01/07 00:59:44;;;;;;;;;;;;;;;7.43;74.07;99331.41;1088260;47;982;-76
2024/01/07 01:00:44;;;;;;;;;;;;;;;7.43;74.02;99334.06;1089320;46;1068;-80
2024/01/07 01:02:02;;;;;;;;;;;;;;;7.45;74.30;99334.75;1088435;46;1355;-79
2024/01/07 01:04:42;;;;;;;;;;;;;;;7.45;74.07;99338.25;1088883;46;1865;-79
2024/01/07 01:05:43;;;;;;;;;;;;;;;7.38;74.02;99344.25;1088321;46;1001;-77
2024/01/07 01:06:43;;;;;;;;;;;;;;;7.42;74.06;99343.84;1089044;46;1091;-79
2024/01/07 01:07:47;;;;;;;;;;;;;;;7.45;74.02;99342.75;1088345;46;1027;-79
2024/01/07 01:14:16;;;;;;;;;;;;;;;;;;;;;
2024/01/07 01:15:17;;;;;;;;;;;;;;;7.43;73.26;99342.88;1088956;54;1009;-82
2024/01/07 01:16:29;;;;;;;;;;;;;;;7.41;73.62;99349.31;1088899;46;917;-78
2024/01/07 01:17:33;;;;;;;;;;;;;;;7.36;73.38;99352.41;1088443;47;1010;-80
2024/01/07 01:18:37;;;;;;;;;;;;;;;7.35;73.39;99350.72;1088388;47;1158;-81
2024/01/07 01:19:38;;;;;;;;;;;;;;;7.28;73.58;99350.44;1088537;54;1092;-79
2024/01/07 01:20:41;;;;;;;;;;;;;;;7.31;73.79;99350.16;1088245;47;958;-83
2024/01/07 01:21:46;;;;;;;;;;;;;;;7.28;73.60;99357.56;1088409;54;1394;-79
2024/01/07 01:22:51;;;;;;;;;;;;;;;7.24;73.67;99358.81;1088489;54;1038;-77
2024/01/07 01:23:51;;;;;;;;;;;;;;;7.25;73.59;99356.03;1088111;47;893;-76
2024/01/07 01:24:56;;;;;;;;;;;;;;;7.22;73.89;99355.50;1087887;47;1854;-77
2024/01/07 01:25:56;;;;;;;;;;;;;;;7.20;73.90;99363.59;1088177;54;980;-81
2024/01/07 01:27:00;;;;;;;;;;;;;;;7.18;73.82;99357.56;1088561;46;964;-80
2024/01/07 01:28:21;;;;;;;;;;;;;;;7.24;73.40;99359.69;1088478;46;932;-77
2024/01/07 01:29:22;;;;;;;;;;;;;;;7.12;73.60;99366.09;1088119;54;907;-82
2024/01/07 01:30:27;;;;;;;;;;;;;;;7.16;73.49;99355.06;1088262;54;1151;-78
2024/01/07 01:31:28;;;;;;;;;;;;;;;7.22;73.45;99363.47;1088487;46;1263;-78
2024/01/07 01:32:33;;;;;;;;;;;;;;;7.18;73.73;99360.22;1088193;54;1025;-80
2024/01/07 01:33:36;;;;;;;;;;;;;;;7.23;73.30;99360.66;1088146;47;942;-80
2024/01/07 01:34:40;;;;;;;;;;;;;;;7.25;73.51;99363.16;1088327;47;955;-80
2024/01/07 01:35:41;;;;;;;;;;;;;;;7.14;73.70;99364.97;1088602;54;998;-81
2024/01/07 01:36:44;;;;;;;;;;;;;;;7.19;73.52;99364.56;1088255;54;1167;-80
2024/01/07 01:37:45;;;;;;;;;;;;;;;7.14;73.46;99364.97;1088184;54;920;-79
2024/01/07 01:39:05;;;;;;;;;;;;;;;7.11;73.58;99357.31;1088272;47;1096;-80
2024/01/07 01:40:06;;;;;;;;;;;;;;;7.15;73.66;99360.53;1088422;54;1366;-78
2024/01/07 01:41:07;;;;;;;;;;;;;;;7.10;73.85;99365.41;1088023;47;993;-79
2024/01/07 01:42:10;;;;;;;;;;;;;;;7.14;73.51;99366.81;1088189;54;1465;-80
2024/01/07 01:43:11;;;;;;;;;;;;;;;7.21;73.49;99365.28;1088469;54;1649;-80
2024/01/07 01:44:12;;;;;;;;;;;;;;;7.24;73.44;99370.31;1088213;54;1105;-78
2024/01/07 01:45:15;;;;;;;;;;;;;;;7.17;73.33;99370.03;1088115;54;1872;-78
2024/01/07 01:46:16;;;;;;;;;;;;;;;7.09;73.58;99366.38;1088352;47;867;-77
2024/01/07 01:47:19;;;;;;;;;;;;;;;7.14;73.54;99366.81;1088045;46;936;-76
2024/01/07 01:48:20;;;;;;;;;;;;;;;7.01;73.78;99367.09;1088070;47;941;-80
2024/01/07 01:49:27;;;;;;;;;;;;;;;7.05;73.73;99365.81;1088266;54;1013;-77
2024/01/07 01:50:28;;;;;;;;;;;;;;;7.09;73.46;99366.38;1088120;47;972;-80
2024/01/07 01:51:39;;;;;;;;;;;;;;;6.97;73.55;99369.19;1088050;54;1375;-76
2024/01/07 01:52:44;;;;;;;;;;;;;;;6.97;73.64;99363.88;1088116;54;997;-76
2024/01/07 01:53:48;;;;;;;;;;;;;;;6.95;73.51;99368.47;1088093;47;1178;-79
2024/01/07 01:54:49;;;;;;;;;;;;;;;6.99;73.58;99372.53;1088135;47;914;-80
2024/01/07 01:55:53;;;;;;;;;;;;;;;6.94;73.64;99369.44;1088324;54;941;-78
2024/01/07 01:56:54;;;;;;;;;;;;;;;6.94;73.59;99369.44;1088841;46;912;-78
2024/01/07 01:57:56;;;;;;;;;;;;;;;6.91;73.82;99369.72;1088390;54;1037;-79
2024/01/07 01:59:00;;;;;;;;;;;;;;;7.03;73.34;99373.94;1088504;47;1083;-77
2024/01/07 02:00:04;;;;;;;;;;;;;;;7.05;73.11;99375.63;1088409;54;1021;-78
2024/01/07 02:01:08;;;;;;;;;;;;;;;6.94;73.16;99369.44;1088349;54;962;-79
2024/01/07 02:02:08;;;;;;;;;;;;;;;7.01;72.97;99375.88;1088412;54;1410;-76
2024/01/07 02:03:12;;;;;;;;;;;;;;;6.65;73.98;99367.59;1088039;54;1092;-78
2024/01/07 02:04:14;;;;;;;;;;;;;;;6.75;73.79;99370.28;1088127;47;1008;-78
2024/01/07 02:05:20;;;;;;;;;;;;;;;6.87;73.30;99365.66;1087940;47;1852;-78
2024/01/07 02:06:21;;;;;;;;;;;;;;;6.96;73.28;99367.50;1088059;54;978;-77
2024/01/07 02:07:22;;;;;;;;;;;;;;;6.93;73.32;99366.94;1088311;54;981;-80
2024/01/07 02:08:26;;;;;;;;;;;;;;;6.99;73.16;99361.88;1088006;54;908;-77
2024/01/07 02:09:27;;;;;;;;;;;;;;;7.03;72.74;99365.97;1087854;54;951;-80
2024/01/07 02:10:36;;;;;;;;;;;;;;;7.02;72.98;99364.28;1088050;47;837;-77
2024/01/07 02:11:36;;;;;;;;;;;;;;;7.03;72.82;99368.63;1088154;46;1344;-76
2024/01/07 02:12:40;;;;;;;;;;;;;;;7.01;72.61;99367.91;1088038;47;942;-77
2024/01/07 02:13:40;;;;;;;;;;;;;;;6.96;72.99;99366.66;1087447;54;1106;-78
2024/01/07 02:14:44;;;;;;;;;;;;;;;7.02;72.94;99368.78;1088034;54;1051;-78
2024/01/07 02:15:44;;;;;;;;;;;;;;;6.91;73.02;99369.72;1087997;47;957;-79
2024/01/07 02:16:48;;;;;;;;;;;;;;;6.94;73.13;99374.78;1088111;54;1496;-78
2024/01/07 02:17:49;;;;;;;;;;;;;;;6.88;73.25;99375.31;1088523;46;952;-80
2024/01/07 02:18:52;;;;;;;;;;;;;;;6.84;73.25;99373.91;1087920;46;930;-77
2024/01/07 02:19:55;;;;;;;;;;;;;;;6.87;72.88;99374.47;1088470;46;978;-79
2024/01/07 02:21:01;;;;;;;;;;;;;;;6.77;73.33;99370.13;1087981;47;971;-77
2024/01/07 02:22:03;;;;;;;;;;;;;;;6.77;73.57;99373.63;1088098;47;1396;-79
2024/01/07 02:23:15;;;;;;;;;;;;;;;6.83;73.17;99375.75;1088239;54;1000;-81
2024/01/07 02:24:19;;;;;;;;;;;;;;;6.79;73.39;99374.31;1088175;47;1058;-79
2024/01/07 02:25:20;;;;;;;;;;;;;;;6.79;73.46;99381.47;1088072;47;1852;-80
2024/01/07 02:26:23;;;;;;;;;;;;;;;6.89;72.83;99381.47;1088220;54;977;-80
2024/01/07 02:27:24;;;;;;;;;;;;;;;6.93;72.95;99378.41;1088247;47;1017;-77
2024/01/07 02:28:36;;;;;;;;;;;;;;;6.87;72.95;99381.63;1088073;47;1088;-80
2024/01/07 02:29:37;;;;;;;;;;;;;;;6.86;73.05;99377.28;1088239;54;1040;-80
2024/01/07 02:30:40;;;;;;;;;;;;;;;6.84;72.59;99379.22;1088222;54;1025;-78
2024/01/07 02:31:41;;;;;;;;;;;;;;;6.86;72.68;99374.63;1088221;47;1280;-81
2024/01/07 02:33:02;;;;;;;;;;;;;;;6.96;72.50;99377.28;1088521;54;981;-81
2024/01/07 02:34:02;;;;;;;;;;;;;;;6.77;72.61;99378.09;1088315;46;1014;-81
2024/01/07 02:35:07;;;;;;;;;;;;;;;6.61;72.90;99384.78;1088781;46;945;-80
2024/01/07 02:36:08;;;;;;;;;;;;;;;6.63;73.18;99377.50;1088141;54;964;-82
2024/01/07 02:37:11;;;;;;;;;;;;;;;6.78;72.80;99377.13;1088379;47;974;-80
2024/01/07 02:38:23;;;;;;;;;;;;;;;6.67;72.83;99384.22;1088349;54;1049;-80
2024/01/07 02:39:29;;;;;;;;;;;;;;;6.75;72.56;99382.69;1088629;54;936;-82
2024/01/07 02:40:30;;;;;;;;;;;;;;;6.54;72.67;99383.63;1088571;54;1042;-82
2024/01/07 02:41:34;;;;;;;;;;;;;;;6.55;72.65;99385.31;1088479;47;1362;-80
2024/01/07 02:42:37;;;;;;;;;;;;;;;6.69;72.29;99376.97;1088424;54;966;-78
2024/01/07 02:43:41;;;;;;;;;;;;;;;6.63;72.28;99387.28;1088525;54;1099;-81
2024/01/07 02:44:57;;;;;;;;;;;;;;;6.68;72.02;99380.59;1088518;47;935;-78
2024/01/07 02:46:07;;;;;;;;;;;;;;;6.63;72.26;99381.97;1088348;47;1856;-80
2024/01/07 02:47:07;;;;;;;;;;;;;;;6.49;72.28;99380.53;1088406;47;1028;-78
2024/01/07 02:48:11;;;;;;;;;;;;;;;6.37;72.70;99380.63;1088162;54;1116;-80
2024/01/07 02:49:12;;;;;;;;;;;;;;;6.49;72.69;99380.53;1088202;54;1504;-80
2024/01/07 02:50:13;;;;;;;;;;;;;;;6.54;72.28;99379.16;1088548;46;901;-80
2024/01/07 02:51:16;;;;;;;;;;;;;;;6.53;72.51;99381.94;1088246;47;1053;-81
2024/01/07 02:52:17;;;;;;;;;;;;;;;6.35;72.84;99379.91;1088254;54;1374;-81
2024/01/07 02:53:20;;;;;;;;;;;;;;;6.30;73.07;99381.28;1088251;54;1021;-79
2024/01/07 02:54:21;;;;;;;;;;;;;;;6.49;72.39;99385.84;1088200;54;915;-79
2024/01/07 02:55:27;;;;;;;;;;;;;;;6.47;72.16;99382.47;1088192;47;970;-80
2024/01/07 02:56:28;;;;;;;;;;;;;;;6.44;72.40;99385.41;1088191;47;904;-80
2024/01/07 02:57:31;;;;;;;;;;;;;;;6.42;72.38;99382.88;1088308;47;993;-81
2024/01/07 02:58:32;;;;;;;;;;;;;;;6.48;71.80;99384.16;1088408;54;1042;-80
2024/01/07 02:59:36;;;;;;;;;;;;;;;6.47;71.79;99390.44;1088373;54;1208;-80
2024/01/07 03:00:38;;;;;;;;;;;;;;;6.39;71.95;99384.00;1088370;47;1011;-80
2024/01/07 03:01:42;;;;;;;;;;;;;;;6.37;71.95;99383.28;1088242;54;1384;-80
2024/01/07 03:02:42;;;;;;;;;;;;;;;6.49;71.77;99389.34;1088202;54;909;-81
2024/01/07 03:03:46;;;;;;;;;;;;;;;6.60;71.58;99388.41;1088144;47;964;-81
2024/01/07 03:04:46;;;;;;;;;;;;;;;6.69;70.97;99381.44;1088030;47;1022;-81
2024/01/07 03:05:50;;;;;;;;;;;;;;;6.67;71.22;99388.69;1087982;54;1852;-80
2024/01/07 03:06:50;;;;;;;;;;;;;;;6.68;71.12;99385.06;1088136;47;940;-80
2024/01/07 03:07:54;;;;;;;;;;;;;;;6.77;70.67;99378.09;1088097;47;989;-81
2024/01/07 03:08:55;;;;;;;;;;;;;;;6.81;70.74;99379.47;1087953;54;983;-79
2024/01/07 03:09:56;;;;;;;;;;;;;;;6.66;70.87;99381.72;1088127;54;1056;-83
2024/01/07 03:11:06;;;;;;;;;;;;;;;6.81;70.50;99384.81;1088362;54;1025;-81
2024/01/07 03:12:07;;;;;;;;;;;;;;;6.79;70.74;99376.97;1088137;54;1286;-80
2024/01/07 03:13:10;;;;;;;;;;;;;;;6.76;70.56;99377.25;1088286;47;965;-81
2024/01/07 03:14:12;;;;;;;;;;;;;;;6.67;70.75;99386.88;1087667;47;1163;-79
2024/01/07 03:15:15;;;;;;;;;;;;;;;6.68;70.79;99388.56;1088169;54;939;-80
2024/01/07 03:16:19;;;;;;;;;;;;;;;6.64;70.97;99387.16;1088146;54;1000;-78
2024/01/07 03:17:23;;;;;;;;;;;;;;;6.70;70.63;99378.66;1088122;54;1014;-79
2024/01/07 03:18:25;;;;;;;;;;;;;;;6.75;70.65;99380.91;1087983;54;991;-79
2024/01/07 03:19:28;;;;;;;;;;;;;;;6.75;70.71;99383.56;1088090;54;1013;-80
2024/01/07 03:20:29;;;;;;;;;;;;;;;6.65;70.64;99393.31;1088256;54;1077;-81
2024/01/07 03:21:32;;;;;;;;;;;;;;;6.61;70.88;99383.94;1088469;54;1346;-80
2024/01/07 03:22:32;;;;;;;;;;;;;;;6.66;70.63;99387.03;1088464;54;973;-79
2024/01/07 03:23:36;;;;;;;;;;;;;;;6.72;70.61;99387.31;1088493;54;943;-79
2024/01/07 03:24:38;;;;;;;;;;;;;;;6.74;70.39;99384.53;1088459;54;975;-78
2024/01/07 03:25:43;;;;;;;;;;;;;;;6.79;70.64;99386.78;1088448;54;1838;-80
2024/01/07 03:26:46;;;;;;;;;;;;;;;6.74;70.64;99384.53;1088503;54;945;-79
2024/01/07 03:27:50;;;;;;;;;;;;;;;6.75;70.45;99385.34;1088436;47;993;-80
2024/01/07 03:28:51;;;;;;;;;;;;;;;6.76;70.58;99392.34;1088498;54;956;-80
2024/01/07 03:29:54;;;;;;;;;;;;;;;6.80;70.59;99393.78;1088447;46;925;-79
2024/01/07 03:30:55;;;;;;;;;;;;;;;6.79;70.70;99392.91;1088484;47;891;-80
2024/01/07 03:31:58;;;;;;;;;;;;;;;6.85;70.58;99391.53;1088524;54;1293;-79
2024/01/07 03:32:59;;;;;;;;;;;;;;;6.81;70.58;99390.97;1088376;54;906;-80
2024/01/07 03:34:02;;;;;;;;;;;;;;;6.76;70.64;99389.69;1088444;54;994;-79
2024/01/07 03:35:03;;;;;;;;;;;;;;;6.82;70.49;99391.78;1088340;47;1075;-79
2024/01/07 03:36:09;;;;;;;;;;;;;;;6.83;70.67;99390.81;1088587;54;999;-81
2024/01/07 03:37:24;;;;;;;;;;;;;;;6.80;70.65;99391.94;1088754;54;1063;-81
2024/01/07 03:38:30;;;;;;;;;;;;;;;6.85;70.50;99397.69;1088637;54;1032;-80
2024/01/07 03:39:32;;;;;;;;;;;;;;;6.85;70.44;99392.34;1089094;46;1029;-79
2024/01/07 03:40:38;;;;;;;;;;;;;;;6.83;70.55;99393.47;1089081;46;990;-80
2024/01/07 03:41:38;;;;;;;;;;;;;;;6.89;70.29;99392.94;1088675;54;1403;-79
2024/01/07 03:42:55;;;;;;;;;;;;;;;6.93;70.27;99397.00;1088635;46;983;-79
2024/01/07 03:43:56;;;;;;;;;;;;;;;6.83;70.27;99397.00;1088609;54;1129;-80
2024/01/07 03:44:59;;;;;;;;;;;;;;;6.88;70.27;99401.91;1088634;47;873;-80
2024/01/07 03:46:03;;;;;;;;;;;;;;;6.89;70.04;99398.28;1088541;47;1860;-78
2024/01/07 03:47:07;;;;;;;;;;;;;;;6.92;70.20;99397.16;1088623;47;1083;-79
2024/01/07 03:48:08;;;;;;;;;;;;;;;6.88;70.25;99399.25;1088683;54;963;-81
2024/01/07 03:49:13;;;;;;;;;;;;;;;6.89;70.22;99400.94;1088949;46;1033;-79
2024/01/07 03:50:13;;;;;;;;;;;;;;;6.92;69.92;99400.63;1088598;54;976;-79
2024/01/07 03:51:16;;;;;;;;;;;;;;;6.95;70.25;99403.03;1088537;47;1023;-79
2024/01/07 03:52:17;;;;;;;;;;;;;;;6.94;70.01;99403.16;1088244;47;1150;-80
2024/01/07 03:53:20;;;;;;;;;;;;;;;6.76;70.35;99417.09;1088357;54;931;-79
2024/01/07 03:54:21;;;;;;;;;;;;;;;6.74;70.32;99410.25;1088341;54;927;-80
2024/01/07 03:55:24;;;;;;;;;;;;;;;6.77;70.59;99405.50;1088239;47;992;-80
2024/01/07 03:56:25;;;;;;;;;;;;;;;6.70;70.73;99410.53;1088338;47;881;-80
2024/01/07 03:57:28;;;;;;;;;;;;;;;6.80;70.42;99412.38;1088347;54;1043;-81
2024/01/07 03:58:32;;;;;;;;;;;;;;;6.77;70.43;99415.28;1088289;54;947;-80
2024/01/07 03:59:35;;;;;;;;;;;;;;;6.84;70.38;99411.09;1088242;54;978;-80
2024/01/07 04:00:36;;;;;;;;;;;;;;;6.83;70.06;99409.41;1088247;47;932;-81
2024/01/07 04:01:37;;;;;;;;;;;;;;;6.73;70.60;99409.41;1088224;54;1343;-81
2024/01/07 04:02:40;;;;;;;;;;;;;;;6.71;70.77;99417.50;1088255;47;969;-81
2024/01/07 04:03:41;;;;;;;;;;;;;;;6.72;70.61;99407.72;1088204;47;945;-79
2024/01/07 04:04:44;;;;;;;;;;;;;;;6.77;70.74;99407.31;1088356;54;937;-80
2024/01/07 04:05:45;;;;;;;;;;;;;;;6.74;70.49;99407.59;1088251;47;1844;-80
2024/01/07 04:06:48;;;;;;;;;;;;;;;6.78;70.57;99403.69;1088273;47;915;-81
2024/01/07 04:07:49;;;;;;;;;;;;;;;6.85;70.29;99407.47;1088302;54;1022;-80
2024/01/07 04:08:53;;;;;;;;;;;;;;;6.76;70.48;99408.28;1088116;47;954;-80
2024/01/07 04:09:54;;;;;;;;;;;;;;;6.82;70.63;99413.06;1088425;46;908;-79
2024/01/07 04:10:57;;;;;;;;;;;;;;;6.65;70.88;99412.72;1088323;46;978;-79
2024/01/07 04:11:58;;;;;;;;;;;;;;;6.77;70.85;99412.63;1088157;54;1333;-79
2024/01/07 04:13:01;;;;;;;;;;;;;;;6.87;70.53;99410.84;1088349;54;991;-78
2024/01/07 04:14:04;;;;;;;;;;;;;;;6.81;70.51;99416.69;1088419;54;943;-78
2024/01/07 04:15:08;;;;;;;;;;;;;;;6.77;70.70;99410.81;1087532;47;1184;-80
2024/01/07 04:16:15;;;;;;;;;;;;;;;6.70;70.92;99418.50;1088224;47;989;-80
2024/01/07 04:17:19;;;;;;;;;;;;;;;6.79;70.53;99414.16;1088316;54;880;-80
2024/01/07 04:18:20;;;;;;;;;;;;;;;6.72;70.96;99421.00;1088358;47;956;-80
2024/01/07 04:19:23;;;;;;;;;;;;;;;6.74;70.52;99419.06;1088168;47;969;-80
2024/01/07 04:20:23;;;;;;;;;;;;;;;6.76;70.53;99418.91;1088321;54;972;-79
2024/01/07 04:21:27;;;;;;;;;;;;;;;6.60;70.91;99420.28;1088270;47;982;-79
2024/01/07 04:22:27;;;;;;;;;;;;;;;6.58;71.34;99426.69;1088125;47;1251;-78
2024/01/07 04:23:31;;;;;;;;;;;;;;;6.60;71.28;99420.28;1088292;47;1155;-79
2024/01/07 04:24:31;;;;;;;;;;;;;;;6.50;71.19;99420.22;1088289;47;1111;-81
2024/01/07 04:25:34;;;;;;;;;;;;;;;6.47;71.46;99427.63;1088311;54;936;-80
2024/01/07 04:26:35;;;;;;;;;;;;;;;6.58;71.39;99422.22;1088249;47;1838;-79
2024/01/07 04:27:38;;;;;;;;;;;;;;;6.50;71.65;99424.72;1088332;54;987;-78
2024/01/07 04:28:42;;;;;;;;;;;;;;;6.47;71.61;99431.09;1088426;54;988;-80
2024/01/07 04:29:48;;;;;;;;;;;;;;;6.51;71.61;99426.41;1088366;54;1003;-80
2024/01/07 04:30:49;;;;;;;;;;;;;;;6.61;71.25;99429.94;1088396;54;1032;-79
2024/01/07 04:31:52;;;;;;;;;;;;;;;6.62;71.22;99425.44;1088221;47;1328;-80
2024/01/07 04:32:53;;;;;;;;;;;;;;;6.56;71.61;99421.50;1088064;54;1025;-80
2024/01/07 04:33:56;;;;;;;;;;;;;;;6.54;71.63;99424.31;1088360;54;1076;-81
2024/01/07 04:34:57;;;;;;;;;;;;;;;6.37;72.02;99430.25;1088268;47;1016;-79
2024/01/07 04:36:01;;;;;;;;;;;;;;;6.38;72.23;99431.91;1088220;54;963;-80
2024/01/07 04:37:05;;;;;;;;;;;;;;;6.44;71.87;99433.19;1088367;54;942;-80
2024/01/07 04:38:06;;;;;;;;;;;;;;;6.52;71.76;99428.06;1088343;46;992;-79
2024/01/07 04:39:09;;;;;;;;;;;;;;;6.57;71.70;99431.16;1088201;47;936;-80
2024/01/07 04:40:11;;;;;;;;;;;;;;;6.60;71.48;99425.59;1088327;54;975;-79
2024/01/07 04:41:14;;;;;;;;;;;;;;;6.63;71.40;99427.97;1088317;54;895;-81
2024/01/07 04:42:14;;;;;;;;;;;;;;;6.67;71.50;99436.50;1088198;47;1197;-80
2024/01/07 04:43:18;;;;;;;;;;;;;;;6.62;71.52;99439.56;1088302;47;944;-80
2024/01/07 04:44:19;;;;;;;;;;;;;;;6.67;71.45;99431.19;1088354;54;979;-81
2024/01/07 04:45:24;;;;;;;;;;;;;;;6.67;71.45;99440.00;1088320;54;998;-80
2024/01/07 04:46:25;;;;;;;;;;;;;;;6.71;71.59;99443.22;1088303;54;1850;-80
2024/01/07 04:47:26;;;;;;;;;;;;;;;6.75;71.34;99443.81;1088210;47;931;-80
2024/01/07 04:48:30;;;;;;;;;;;;;;;6.76;71.46;99443.66;1088344;54;889;-79
2024/01/07 04:49:31;;;;;;;;;;;;;;;6.79;71.21;99438.09;1088263;47;893;-79
2024/01/07 04:50:34;;;;;;;;;;;;;;;6.75;71.34;99442.00;1088311;54;899;-79
2024/01/07 04:51:36;;;;;;;;;;;;;;;6.70;71.44;99437.09;1088239;47;1352;-80
2024/01/07 04:52:39;;;;;;;;;;;;;;;6.69;71.62;99448.69;1088290;46;941;-80
2024/01/07 04:53:40;;;;;;;;;;;;;;;6.74;71.55;99447.44;1088195;54;1150;-80
2024/01/07 04:54:40;;;;;;;;;;;;;;;6.70;71.54;99445.06;1088166;47;940;-80
2024/01/07 04:55:43;;;;;;;;;;;;;;;6.65;71.56;99439.28;1088332;54;1045;-79
2024/01/07 04:56:44;;;;;;;;;;;;;;;6.52;71.83;99454.59;1088195;54;978;-77
2024/01/07 04:57:48;;;;;;;;;;;;;;;6.58;71.81;99450.56;1088125;46;1095;-77
2024/01/07 04:58:50;;;;;;;;;;;;;;;6.64;71.45;99439.44;1088158;54;1042;-77
2024/01/07 04:59:53;;;;;;;;;;;;;;;6.53;71.72;99448.31;1088112;47;936;-77
2024/01/07 05:00:57;;;;;;;;;;;;;;;6.58;72.02;99447.94;1088079;54;1021;-77
2024/01/07 05:01:57;;;;;;;;;;;;;;;6.64;71.93;99442.91;1088150;46;1281;-79
2024/01/07 05:03:00;;;;;;;;;;;;;;;6.68;71.74;99447.00;1088128;54;999;-78
2024/01/07 05:04:01;;;;;;;;;;;;;;;6.52;71.85;99454.59;1088081;54;942;-79
2024/01/07 05:05:05;;;;;;;;;;;;;;;6.56;72.18;99451.56;1088133;54;966;-79
2024/01/07 05:06:08;;;;;;;;;;;;;;;6.55;72.21;99449.91;1088087;47;1843;-79
2024/01/07 05:07:11;;;;;;;;;;;;;;;6.55;72.10;99441.94;1087969;47;947;-79
2024/01/07 05:08:12;;;;;;;;;;;;;;;6.56;72.23;99443.59;1087922;47;876;-79
2024/01/07 05:09:15;;;;;;;;;;;;;;;6.51;72.20;99450.28;1088059;54;907;-79
2024/01/07 05:10:16;;;;;;;;;;;;;;;6.37;72.68;99454.16;1088007;54;1036;-78
2024/01/07 05:11:19;;;;;;;;;;;;;;;6.43;72.28;99455.41;1088038;54;973;-78
2024/01/07 05:12:20;;;;;;;;;;;;;;;6.47;72.47;99451.53;1088042;47;1371;-80
2024/01/07 05:13:23;;;;;;;;;;;;;;;6.50;72.30;99451.28;1088033;54;914;-78
2024/01/07 05:14:24;;;;;;;;;;;;;;;6.60;72.17;99456.59;1088318;46;982;-78
2024/01/07 05:15:27;;;;;;;;;;;;;;;6.59;72.00;99461.09;1087798;54;1227;-78
2024/01/07 05:16:32;;;;;;;;;;;;;;;6.51;72.31;99456.44;1088085;54;987;-80
2024/01/07 05:17:35;;;;;;;;;;;;;;;6.62;71.70;99454.66;1088065;46;1189;-79
2024/01/07 05:18:36;;;;;;;;;;;;;;;6.59;71.99;99461.09;1088183;46;887;-79
2024/01/07 05:19:42;;;;;;;;;;;;;;;6.65;71.64;99463.19;1088027;47;871;-79
2024/01/07 05:20:43;;;;;;;;;;;;;;;6.48;71.91;99466.50;1088016;54;946;-79
2024/01/07 05:21:46;;;;;;;;;;;;;;;6.44;72.10;99468.56;1088039;47;1292;-79
2024/01/07 05:22:47;;;;;;;;;;;;;;;6.35;72.43;99472.00;1088140;54;926;-78
2024/01/07 05:23:50;;;;;;;;;;;;;;;6.37;72.39;99470.91;1088036;47;968;-78
2024/01/07 05:24:51;;;;;;;;;;;;;;;6.39;72.20;99471.63;1088151;46;899;-79
2024/01/07 05:25:51;;;;;;;;;;;;;;;6.38;72.36;99464.63;1088168;46;871;-79
2024/01/07 05:26:55;;;;;;;;;;;;;;;6.39;72.34;99466.31;1087911;47;1860;-78
2024/01/07 05:27:56;;;;;;;;;;;;;;;6.36;72.43;99469.22;1088006;54;981;-78
2024/01/07 05:28:59;;;;;;;;;;;;;;;6.37;72.58;99464.78;1088104;54;931;-78
2024/01/07 05:30:00;;;;;;;;;;;;;;;6.39;72.37;99470.75;1088037;54;1034;-78
2024/01/07 05:31:01;;;;;;;;;;;;;;;6.19;72.71;99462.69;1088047;54;978;-78
2024/01/07 05:32:07;;;;;;;;;;;;;;;6.17;73.19;99467.31;1088276;46;1400;-79
2024/01/07 05:33:08;;;;;;;;;;;;;;;6.14;73.04;99472.03;1088047;54;1040;-78
2024/01/07 05:34:11;;;;;;;;;;;;;;;6.13;73.11;99471.19;1088055;47;971;-77
2024/01/07 05:35:12;;;;;;;;;;;;;;;6.12;73.21;99466.03;1088113;54;1041;-80
2024/01/07 05:36:13;;;;;;;;;;;;;;;6.11;73.57;99469.63;1087967;54;996;-79
2024/01/07 05:37:16;;;;;;;;;;;;;;;6.03;73.54;99468.47;1087985;47;957;-78
2024/01/07 05:38:17;;;;;;;;;;;;;;;6.02;73.54;99469.44;1088091;47;1024;-80
2024/01/07 05:39:21;;;;;;;;;;;;;;;6.05;73.46;99471.81;1088001;47;942;-79
2024/01/07 05:40:22;;;;;;;;;;;;;;;5.93;73.93;99476.31;1088081;47;884;-79
2024/01/07 05:41:25;;;;;;;;;;;;;;;5.96;73.95;99474.41;1087963;47;1077;-79
2024/01/07 05:42:25;;;;;;;;;;;;;;;5.96;73.72;99480.53;1088155;46;1175;-80
2024/01/07 05:43:29;;;;;;;;;;;;;;;6.12;73.28;99476.63;1088030;47;995;-79
2024/01/07 05:44:30;;;;;;;;;;;;;;;6.07;73.56;99480.50;1087941;47;976;-81
2024/01/07 05:45:34;;;;;;;;;;;;;;;6.09;73.40;99481.22;1088104;54;1011;-79
2024/01/07 05:46:38;;;;;;;;;;;;;;;6.15;73.09;99479.88;1088268;47;1918;-79
2024/01/07 05:47:45;;;;;;;;;;;;;;;6.05;73.51;99479.78;1088258;47;1008;-79
2024/01/07 05:48:52;;;;;;;;;;;;;;;6.14;73.21;99480.84;1088625;46;987;-81
2024/01/07 05:49:56;;;;;;;;;;;;;;;6.19;72.82;99483.91;1088409;54;1096;-79
2024/01/07 05:50:56;;;;;;;;;;;;;;;6.16;72.86;99492.16;1088353;47;1056;-80